sensor_id;sensor_type;location;lat;lon;timestamp;temperature;humidity
1011;DHT22;494;48.744;10.106;2023-06-19T00:00:59;22.40;16.40
1011;DHT22;494;48.744;10.106;2023-06-19T00:03:28;22.30;16.70
1011;DHT22;494;48.744;10.106;2023-06-19T00:05:57;22.30;16.90
1011;DHT22;494;48.744;10.106;2023-06-19T00:08:26;22.30;17.30
1011;DHT22;494;48.744;10.106;2023-06-19T00:10:56;22.20;17.50
1011;DHT22;494;48.744;10.106;2023-06-19T00:13:25;22.10;17.50
1011;DHT22;494;48.744;10.106;2023-06-19T00:15:54;22.10;18.00
1011;DHT22;494;48.744;10.106;2023-06-19T00:18:27;22.10;17.50
1011;DHT22;494;48.744;10.106;2023-06-19T00:20:56;22.10;17.30
1011;DHT22;494;48.744;10.106;2023-06-19T00:23:25;22.10;17.30
1011;DHT22;494;48.744;10.106;2023-06-19T00:25:56;22.10;17.30
1011;DHT22;494;48.744;10.106;2023-06-19T00:28:25;22.10;17.80
1011;DHT22;494;48.744;10.106;2023-06-19T00:30:54;22.10;17.40
1011;DHT22;494;48.744;10.106;2023-06-19T00:33:22;22.10;17.70
1011;DHT22;494;48.744;10.106;2023-06-19T00:35:51;22.10;17.60
1011;DHT22;494;48.744;10.106;2023-06-19T00:38:21;22.10;17.60
1011;DHT22;494;48.744;10.106;2023-06-19T00:40:50;22.10;17.90
1011;DHT22;494;48.744;10.106;2023-06-19T00:43:21;22.10;17.30
1011;DHT22;494;48.744;10.106;2023-06-19T00:45:50;22.10;17.40
1011;DHT22;494;48.744;10.106;2023-06-19T00:48:18;22.10;17.40
1011;DHT22;494;48.744;10.106;2023-06-19T00:50:47;22.10;17.40
1011;DHT22;494;48.744;10.106;2023-06-19T00:53:17;22.10;17.70
1011;DHT22;494;48.744;10.106;2023-06-19T00:55:47;22.10;17.20
1011;DHT22;494;48.744;10.106;2023-06-19T00:58:20;22.10;17.20
1011;DHT22;494;48.744;10.106;2023-06-19T01:00:50;22.10;17.20
1011;DHT22;494;48.744;10.106;2023-06-19T01:03:34;22.00;17.30
1011;DHT22;494;48.744;10.106;2023-06-19T01:06:08;21.80;17.70
1011;DHT22;494;48.744;10.106;2023-06-19T01:08:49;21.80;17.90
1011;DHT22;494;48.744;10.106;2023-06-19T01:11:28;21.80;18.10
1011;DHT22;494;48.744;10.106;2023-06-19T01:14:08;21.80;18.30
1011;DHT22;494;48.744;10.106;2023-06-19T01:16:41;21.80;18.30
1011;DHT22;494;48.744;10.106;2023-06-19T01:19:15;21.80;18.50
1011;DHT22;494;48.744;10.106;2023-06-19T01:21:47;21.80;18.40
1011;DHT22;494;48.744;10.106;2023-06-19T01:24:18;21.80;18.50
1011;DHT22;494;48.744;10.106;2023-06-19T01:26:47;21.80;18.30
1011;DHT22;494;48.744;10.106;2023-06-19T01:29:16;21.80;18.90
1011;DHT22;494;48.744;10.106;2023-06-19T01:31:50;21.80;18.50
1011;DHT22;494;48.744;10.106;2023-06-19T01:34:25;21.80;18.30
1011;DHT22;494;48.744;10.106;2023-06-19T01:36:57;21.80;18.20
1011;DHT22;494;48.744;10.106;2023-06-19T01:39:28;21.80;18.00
1011;DHT22;494;48.744;10.106;2023-06-19T01:41:59;21.80;18.00
1011;DHT22;494;48.744;10.106;2023-06-19T01:44:28;21.80;18.20
1011;DHT22;494;48.744;10.106;2023-06-19T01:46:57;21.80;18.40
1011;DHT22;494;48.744;10.106;2023-06-19T01:49:26;21.70;18.30
1011;DHT22;494;48.744;10.106;2023-06-19T01:51:54;21.70;18.50
1011;DHT22;494;48.744;10.106;2023-06-19T01:54:24;21.70;18.10
1011;DHT22;494;48.744;10.106;2023-06-19T01:56:57;21.70;18.20
1011;DHT22;494;48.744;10.106;2023-06-19T01:59:26;21.70;18.00
1011;DHT22;494;48.744;10.106;2023-06-19T02:01:55;21.70;18.00
1011;DHT22;494;48.744;10.106;2023-06-19T02:04:24;21.70;18.00
1011;DHT22;494;48.744;10.106;2023-06-19T02:06:53;21.80;18.00
1011;DHT22;494;48.744;10.106;2023-06-19T02:09:21;21.80;18.10
1011;DHT22;494;48.744;10.106;2023-06-19T02:11:50;21.70;18.30
1011;DHT22;494;48.744;10.106;2023-06-19T02:14:22;21.60;18.80
1011;DHT22;494;48.744;10.106;2023-06-19T02:16:54;21.60;18.90
1011;DHT22;494;48.744;10.106;2023-06-19T02:19:23;21.60;19.30
1011;DHT22;494;48.744;10.106;2023-06-19T02:21:52;21.60;19.30
1011;DHT22;494;48.744;10.106;2023-06-19T02:24:20;21.60;19.30
1011;DHT22;494;48.744;10.106;2023-06-19T02:26:50;21.50;19.40
1011;DHT22;494;48.744;10.106;2023-06-19T02:29:20;21.30;19.60
1011;DHT22;494;48.744;10.106;2023-06-19T02:31:49;21.30;19.60
1011;DHT22;494;48.744;10.106;2023-06-19T02:34:17;21.30;20.00
1011;DHT22;494;48.744;10.106;2023-06-19T02:36:46;21.30;19.50
1011;DHT22;494;48.744;10.106;2023-06-19T02:39:15;21.30;20.20
1011;DHT22;494;48.744;10.106;2023-06-19T02:41:45;21.30;20.30
1011;DHT22;494;48.744;10.106;2023-06-19T02:44:14;21.30;20.60
1011;DHT22;494;48.744;10.106;2023-06-19T02:46:44;21.20;20.50
1011;DHT22;494;48.744;10.106;2023-06-19T02:49:13;21.20;20.50
1011;DHT22;494;48.744;10.106;2023-06-19T02:51:42;21.20;20.80
1011;DHT22;494;48.744;10.106;2023-06-19T02:54:10;21.10;21.00
1011;DHT22;494;48.744;10.106;2023-06-19T02:56:39;20.60;21.80
1011;DHT22;494;48.744;10.106;2023-06-19T02:59:08;20.60;21.90
1011;DHT22;494;48.744;10.106;2023-06-19T03:01:36;20.50;21.50
1011;DHT22;494;48.744;10.106;2023-06-19T03:04:07;20.50;21.90
1011;DHT22;494;48.744;10.106;2023-06-19T03:06:36;20.50;22.20
1011;DHT22;494;48.744;10.106;2023-06-19T03:09:07;20.50;22.20
1011;DHT22;494;48.744;10.106;2023-06-19T03:11:39;20.50;22.50
1011;DHT22;494;48.744;10.106;2023-06-19T03:14:08;20.60;22.90
1011;DHT22;494;48.744;10.106;2023-06-19T03:16:37;20.60;23.00
1011;DHT22;494;48.744;10.106;2023-06-19T03:19:07;20.70;23.10
1011;DHT22;494;48.744;10.106;2023-06-19T03:21:36;20.70;22.70
1011;DHT22;494;48.744;10.106;2023-06-19T03:24:05;20.60;23.60
1011;DHT22;494;48.744;10.106;2023-06-19T03:26:34;20.60;23.50
1011;DHT22;494;48.744;10.106;2023-06-19T03:29:02;20.70;23.20
1011;DHT22;494;48.744;10.106;2023-06-19T03:31:31;20.80;22.80
1011;DHT22;494;48.744;10.106;2023-06-19T03:34:00;20.80;22.50
1011;DHT22;494;48.744;10.106;2023-06-19T03:36:30;20.90;22.60
1011;DHT22;494;48.744;10.106;2023-06-19T03:38:59;21.00;22.70
1011;DHT22;494;48.744;10.106;2023-06-19T03:41:27;21.00;22.50
1011;DHT22;494;48.744;10.106;2023-06-19T03:43:56;21.00;22.30
1011;DHT22;494;48.744;10.106;2023-06-19T03:46:25;21.00;22.40
1011;DHT22;494;48.744;10.106;2023-06-19T03:48:54;21.00;22.80
1011;DHT22;494;48.744;10.106;2023-06-19T03:51:22;21.10;23.00
1011;DHT22;494;48.744;10.106;2023-06-19T03:53:52;21.10;23.10
1011;DHT22;494;48.744;10.106;2023-06-19T03:56:21;21.00;23.20
1011;DHT22;494;48.744;10.106;2023-06-19T03:58:50;21.10;23.20
1011;DHT22;494;48.744;10.106;2023-06-19T04:01:19;21.20;23.40
1011;DHT22;494;48.744;10.106;2023-06-19T04:03:48;21.30;23.30
1011;DHT22;494;48.744;10.106;2023-06-19T04:06:17;21.30;22.80
1011;DHT22;494;48.744;10.106;2023-06-19T04:08:46;21.20;22.60
1011;DHT22;494;48.744;10.106;2023-06-19T04:11:16;21.10;23.20
1011;DHT22;494;48.744;10.106;2023-06-19T04:13:44;21.10;22.90
1011;DHT22;494;48.744;10.106;2023-06-19T04:16:13;21.20;22.30
1011;DHT22;494;48.744;10.106;2023-06-19T04:18:42;21.20;22.30
1011;DHT22;494;48.744;10.106;2023-06-19T04:21:11;21.30;22.30
1011;DHT22;494;48.744;10.106;2023-06-19T04:23:40;21.30;21.80
1011;DHT22;494;48.744;10.106;2023-06-19T04:26:09;21.40;22.00
1011;DHT22;494;48.744;10.106;2023-06-19T04:28:39;21.50;21.80
1011;DHT22;494;48.744;10.106;2023-06-19T04:31:08;21.60;21.70
1011;DHT22;494;48.744;10.106;2023-06-19T04:33:37;21.60;21.50
1011;DHT22;494;48.744;10.106;2023-06-19T04:36:07;21.70;22.30
1011;DHT22;494;48.744;10.106;2023-06-19T04:38:37;21.70;21.70
1011;DHT22;494;48.744;10.106;2023-06-19T04:41:05;21.80;21.30
1011;DHT22;494;48.744;10.106;2023-06-19T04:43:34;21.80;21.10
1011;DHT22;494;48.744;10.106;2023-06-19T04:46:04;21.80;21.60
1011;DHT22;494;48.744;10.106;2023-06-19T04:48:33;21.90;20.80
1011;DHT22;494;48.744;10.106;2023-06-19T04:51:03;22.10;20.90
1011;DHT22;494;48.744;10.106;2023-06-19T04:53:32;22.10;20.50
1011;DHT22;494;48.744;10.106;2023-06-19T04:56:01;22.30;20.50
1011;DHT22;494;48.744;10.106;2023-06-19T04:58:30;22.40;20.40
1011;DHT22;494;48.744;10.106;2023-06-19T05:00:58;22.40;20.50
1011;DHT22;494;48.744;10.106;2023-06-19T05:03:28;22.60;20.00
1011;DHT22;494;48.744;10.106;2023-06-19T05:05:57;22.70;19.70
1011;DHT22;494;48.744;10.106;2023-06-19T05:08:26;22.80;19.10
1011;DHT22;494;48.744;10.106;2023-06-19T05:10:54;22.80;19.20
1011;DHT22;494;48.744;10.106;2023-06-19T05:13:24;22.80;19.20
1011;DHT22;494;48.744;10.106;2023-06-19T05:15:53;22.80;19.10
1011;DHT22;494;48.744;10.106;2023-06-19T05:18:23;22.90;19.00
1011;DHT22;494;48.744;10.106;2023-06-19T05:20:53;23.00;19.00
1011;DHT22;494;48.744;10.106;2023-06-19T05:23:22;23.10;18.80
1011;DHT22;494;48.744;10.106;2023-06-19T05:25:51;23.10;19.00
1011;DHT22;494;48.744;10.106;2023-06-19T05:28:20;23.20;19.00
1011;DHT22;494;48.744;10.106;2023-06-19T05:30:48;23.30;18.50
1011;DHT22;494;48.744;10.106;2023-06-19T05:33:18;23.30;19.30
1011;DHT22;494;48.744;10.106;2023-06-19T05:35:47;23.30;18.10
1011;DHT22;494;48.744;10.106;2023-06-19T05:38:21;23.60;18.30
1011;DHT22;494;48.744;10.106;2023-06-19T05:40:50;23.80;17.80
1011;DHT22;494;48.744;10.106;2023-06-19T05:43:19;24.00;17.30
1011;DHT22;494;48.744;10.106;2023-06-19T05:45:49;24.30;17.10
1011;DHT22;494;48.744;10.106;2023-06-19T05:48:18;24.50;16.80
1011;DHT22;494;48.744;10.106;2023-06-19T05:50:46;24.60;16.40
1011;DHT22;494;48.744;10.106;2023-06-19T05:53:15;24.80;16.30
1011;DHT22;494;48.744;10.106;2023-06-19T05:55:45;25.00;15.80
1011;DHT22;494;48.744;10.106;2023-06-19T05:58:14;24.90;14.90
1011;DHT22;494;48.744;10.106;2023-06-19T06:00:47;24.90;15.40
1011;DHT22;494;48.744;10.106;2023-06-19T06:03:16;25.00;15.10
1011;DHT22;494;48.744;10.106;2023-06-19T06:05:45;25.00;15.60
1011;DHT22;494;48.744;10.106;2023-06-19T06:08:16;24.90;14.70
1011;DHT22;494;48.744;10.106;2023-06-19T06:10:46;25.00;15.30
1011;DHT22;494;48.744;10.106;2023-06-19T06:13:15;25.00;16.00
1011;DHT22;494;48.744;10.106;2023-06-19T06:15:51;25.00;17.30
1011;DHT22;494;48.744;10.106;2023-06-19T06:18:26;25.10;17.70
1011;DHT22;494;48.744;10.106;2023-06-19T06:20:55;25.10;17.60
1011;DHT22;494;48.744;10.106;2023-06-19T06:23:26;25.10;18.20
1011;DHT22;494;48.744;10.106;2023-06-19T06:25:57;25.20;18.90
1011;DHT22;494;48.744;10.106;2023-06-19T06:28:30;25.20;19.20
1011;DHT22;494;48.744;10.106;2023-06-19T06:31:00;25.30;18.80
1011;DHT22;494;48.744;10.106;2023-06-19T06:33:29;25.30;18.40
1011;DHT22;494;48.744;10.106;2023-06-19T06:35:59;25.50;18.50
1011;DHT22;494;48.744;10.106;2023-06-19T06:38:30;25.60;18.40
1011;DHT22;494;48.744;10.106;2023-06-19T06:41:00;25.70;18.20
1011;DHT22;494;48.744;10.106;2023-06-19T06:43:30;25.80;18.30
1011;DHT22;494;48.744;10.106;2023-06-19T06:46:00;25.90;18.20
1011;DHT22;494;48.744;10.106;2023-06-19T06:48:29;26.10;18.90
1011;DHT22;494;48.744;10.106;2023-06-19T06:50:59;26.20;18.30
1011;DHT22;494;48.744;10.106;2023-06-19T06:53:29;26.40;17.10
1011;DHT22;494;48.744;10.106;2023-06-19T06:56:00;26.40;16.60
1011;DHT22;494;48.744;10.106;2023-06-19T06:58:29;26.50;14.70
1011;DHT22;494;48.744;10.106;2023-06-19T07:00:58;26.50;14.20
1011;DHT22;494;48.744;10.106;2023-06-19T07:03:27;26.70;13.50
1011;DHT22;494;48.744;10.106;2023-06-19T07:05:59;26.70;13.20
1011;DHT22;494;48.744;10.106;2023-06-19T07:08:29;26.90;12.80
1011;DHT22;494;48.744;10.106;2023-06-19T07:11:00;27.10;12.50
1011;DHT22;494;48.744;10.106;2023-06-19T07:13:29;27.30;11.80
1011;DHT22;494;48.744;10.106;2023-06-19T07:15:59;27.60;11.70
1011;DHT22;494;48.744;10.106;2023-06-19T07:18:28;28.00;10.30
1011;DHT22;494;48.744;10.106;2023-06-19T07:20:58;27.90;10.10
1011;DHT22;494;48.744;10.106;2023-06-19T07:23:27;28.10;10.10
1011;DHT22;494;48.744;10.106;2023-06-19T07:25:57;28.10;9.90
1011;DHT22;494;48.744;10.106;2023-06-19T07:28:27;27.80;9.50
1011;DHT22;494;48.744;10.106;2023-06-19T07:30:57;27.70;10.80
1011;DHT22;494;48.744;10.106;2023-06-19T07:33:25;27.70;11.20
1011;DHT22;494;48.744;10.106;2023-06-19T07:35:54;27.70;10.80
1011;DHT22;494;48.744;10.106;2023-06-19T07:38:23;27.80;11.00
1011;DHT22;494;48.744;10.106;2023-06-19T07:40:52;27.80;10.90
1011;DHT22;494;48.744;10.106;2023-06-19T07:43:22;27.70;11.00
1011;DHT22;494;48.744;10.106;2023-06-19T07:45:52;27.70;11.30
1011;DHT22;494;48.744;10.106;2023-06-19T07:48:21;27.70;11.10
1011;DHT22;494;48.744;10.106;2023-06-19T07:50:50;27.50;11.40
1011;DHT22;494;48.744;10.106;2023-06-19T07:53:19;27.70;11.50
1011;DHT22;494;48.744;10.106;2023-06-19T07:55:48;28.20;10.90
1011;DHT22;494;48.744;10.106;2023-06-19T07:58:17;28.60;9.30
1011;DHT22;494;48.744;10.106;2023-06-19T08:00:46;28.70;9.90
1011;DHT22;494;48.744;10.106;2023-06-19T08:03:17;28.80;9.30
1011;DHT22;494;48.744;10.106;2023-06-19T08:05:46;29.00;9.50
1011;DHT22;494;48.744;10.106;2023-06-19T08:08:15;29.00;9.50
1011;DHT22;494;48.744;10.106;2023-06-19T08:10:44;29.10;10.30
1011;DHT22;494;48.744;10.106;2023-06-19T08:13:12;29.30;9.80
1011;DHT22;494;48.744;10.106;2023-06-19T08:15:42;29.50;9.20
1011;DHT22;494;48.744;10.106;2023-06-19T08:18:12;29.50;9.00
1011;DHT22;494;48.744;10.106;2023-06-19T08:20:42;29.60;8.80
1011;DHT22;494;48.744;10.106;2023-06-19T08:23:11;29.60;9.00
1011;DHT22;494;48.744;10.106;2023-06-19T08:25:40;29.70;8.20
1011;DHT22;494;48.744;10.106;2023-06-19T08:28:08;29.90;8.00
1011;DHT22;494;48.744;10.106;2023-06-19T08:30:37;30.00;8.60
1011;DHT22;494;48.744;10.106;2023-06-19T08:33:06;30.20;8.90
1011;DHT22;494;48.744;10.106;2023-06-19T08:35:36;30.40;7.60
1011;DHT22;494;48.744;10.106;2023-06-19T08:38:06;30.50;7.10
1011;DHT22;494;48.744;10.106;2023-06-19T08:40:34;30.70;7.00
1011;DHT22;494;48.744;10.106;2023-06-19T08:43:03;30.90;6.30
1011;DHT22;494;48.744;10.106;2023-06-19T08:45:32;31.20;6.40
1011;DHT22;494;48.744;10.106;2023-06-19T08:48:01;31.50;6.00
1011;DHT22;494;48.744;10.106;2023-06-19T08:50:31;31.70;5.80
1011;DHT22;494;48.744;10.106;2023-06-19T08:53:00;31.90;6.30
1011;DHT22;494;48.744;10.106;2023-06-19T08:55:30;32.10;5.00
1011;DHT22;494;48.744;10.106;2023-06-19T08:57:59;32.10;5.80
1011;DHT22;494;48.744;10.106;2023-06-19T09:00:29;32.60;4.70
1011;DHT22;494;48.744;10.106;2023-06-19T09:03:00;32.90;4.30
1011;DHT22;494;48.744;10.106;2023-06-19T09:05:41;32.90;4.20
1011;DHT22;494;48.744;10.106;2023-06-19T09:08:18;32.90;3.80
1011;DHT22;494;48.744;10.106;2023-06-19T09:10:56;32.80;4.60
1011;DHT22;494;48.744;10.106;2023-06-19T09:13:25;32.70;5.20
1011;DHT22;494;48.744;10.106;2023-06-19T09:15:59;32.70;5.10
1011;DHT22;494;48.744;10.106;2023-06-19T09:18:32;32.70;5.40
1011;DHT22;494;48.744;10.106;2023-06-19T09:21:15;32.60;4.90
1011;DHT22;494;48.744;10.106;2023-06-19T09:23:45;32.40;5.00
1011;DHT22;494;48.744;10.106;2023-06-19T09:26:16;32.30;4.90
1011;DHT22;494;48.744;10.106;2023-06-19T09:28:46;32.20;5.90
1011;DHT22;494;48.744;10.106;2023-06-19T09:31:17;32.10;5.10
1011;DHT22;494;48.744;10.106;2023-06-19T09:33:45;31.90;5.00
1011;DHT22;494;48.744;10.106;2023-06-19T09:36:14;31.90;5.10
1011;DHT22;494;48.744;10.106;2023-06-19T09:38:45;32.20;5.30
1011;DHT22;494;48.744;10.106;2023-06-19T09:41:19;32.50;5.30
1011;DHT22;494;48.744;10.106;2023-06-19T09:43:50;32.80;5.60
1011;DHT22;494;48.744;10.106;2023-06-19T09:46:29;33.20;6.20
1011;DHT22;494;48.744;10.106;2023-06-19T09:49:00;33.50;4.20
1011;DHT22;494;48.744;10.106;2023-06-19T09:51:37;33.90;3.70
1011;DHT22;494;48.744;10.106;2023-06-19T09:54:09;34.10;3.10
1011;DHT22;494;48.744;10.106;2023-06-19T09:56:40;34.20;3.40
1011;DHT22;494;48.744;10.106;2023-06-19T09:59:09;33.90;3.50
1011;DHT22;494;48.744;10.106;2023-06-19T10:01:40;33.90;3.50
1011;DHT22;494;48.744;10.106;2023-06-19T10:04:10;34.00;3.00
1011;DHT22;494;48.744;10.106;2023-06-19T10:06:45;34.30;3.30
1011;DHT22;494;48.744;10.106;2023-06-19T10:09:16;34.70;1.00
1011;DHT22;494;48.744;10.106;2023-06-19T10:11:58;35.10;1.00
1011;DHT22;494;48.744;10.106;2023-06-19T10:14:27;35.20;1.00
1011;DHT22;494;48.744;10.106;2023-06-19T10:16:56;35.50;1.00
1011;DHT22;494;48.744;10.106;2023-06-19T10:19:24;35.90;1.00
1011;DHT22;494;48.744;10.106;2023-06-19T10:21:54;36.20;1.00
1011;DHT22;494;48.744;10.106;2023-06-19T10:24:26;36.00;1.00
1011;DHT22;494;48.744;10.106;2023-06-19T10:26:59;35.70;1.00
1011;DHT22;494;48.744;10.106;2023-06-19T10:29:38;35.00;1.10
1011;DHT22;494;48.744;10.106;2023-06-19T10:32:16;34.50;1.70
1011;DHT22;494;48.744;10.106;2023-06-19T10:34:45;34.10;2.70
1011;DHT22;494;48.744;10.106;2023-06-19T10:37:16;34.00;2.90
1011;DHT22;494;48.744;10.106;2023-06-19T10:39:44;33.80;2.50
1011;DHT22;494;48.744;10.106;2023-06-19T10:42:14;33.70;3.10
1011;DHT22;494;48.744;10.106;2023-06-19T10:44:43;33.50;3.40
1011;DHT22;494;48.744;10.106;2023-06-19T10:47:12;33.40;3.20
1011;DHT22;494;48.744;10.106;2023-06-19T10:49:43;33.20;3.30
1011;DHT22;494;48.744;10.106;2023-06-19T10:52:12;33.20;3.50
1011;DHT22;494;48.744;10.106;2023-06-19T10:54:42;33.20;4.60
1011;DHT22;494;48.744;10.106;2023-06-19T10:57:11;33.30;3.60
1011;DHT22;494;48.744;10.106;2023-06-19T10:59:42;33.40;4.50
1011;DHT22;494;48.744;10.106;2023-06-19T11:02:11;33.50;3.50
1011;DHT22;494;48.744;10.106;2023-06-19T11:04:39;33.50;4.20
1011;DHT22;494;48.744;10.106;2023-06-19T11:07:08;33.70;3.30
1011;DHT22;494;48.744;10.106;2023-06-19T11:09:37;34.10;3.50
1011;DHT22;494;48.744;10.106;2023-06-19T11:12:10;34.40;3.40
1011;DHT22;494;48.744;10.106;2023-06-19T11:14:39;34.70;1.80
1011;DHT22;494;48.744;10.106;2023-06-19T11:17:10;34.80;2.30
1011;DHT22;494;48.744;10.106;2023-06-19T11:19:39;34.80;1.00
1011;DHT22;494;48.744;10.106;2023-06-19T11:22:11;34.60;2.00
1011;DHT22;494;48.744;10.106;2023-06-19T11:24:44;34.80;1.40
1011;DHT22;494;48.744;10.106;2023-06-19T11:27:18;34.80;1.00
1011;DHT22;494;48.744;10.106;2023-06-19T11:29:58;34.80;1.00
1011;DHT22;494;48.744;10.106;2023-06-19T11:32:33;34.50;1.50
1011;DHT22;494;48.744;10.106;2023-06-19T11:35:10;34.40;1.00
1011;DHT22;494;48.744;10.106;2023-06-19T11:37:40;34.50;1.00
1011;DHT22;494;48.744;10.106;2023-06-19T11:40:10;34.70;1.40
1011;DHT22;494;48.744;10.106;2023-06-19T11:42:48;34.70;1.10
1011;DHT22;494;48.744;10.106;2023-06-19T11:45:17;34.80;1.00
1011;DHT22;494;48.744;10.106;2023-06-19T11:47:49;34.80;1.00
1011;DHT22;494;48.744;10.106;2023-06-19T11:50:18;34.60;1.00
1011;DHT22;494;48.744;10.106;2023-06-19T11:52:51;34.60;1.00
1011;DHT22;494;48.744;10.106;2023-06-19T11:55:20;34.60;1.00
1011;DHT22;494;48.744;10.106;2023-06-19T11:57:49;34.40;1.00
1011;DHT22;494;48.744;10.106;2023-06-19T12:00:18;34.60;1.50
1011;DHT22;494;48.744;10.106;2023-06-19T12:02:48;34.70;1.20
1011;DHT22;494;48.744;10.106;2023-06-19T12:05:17;34.90;1.00
1011;DHT22;494;48.744;10.106;2023-06-19T12:07:46;35.10;1.00
1011;DHT22;494;48.744;10.106;2023-06-19T12:10:15;35.50;1.00
1011;DHT22;494;48.744;10.106;2023-06-19T12:12:43;35.50;1.00
1011;DHT22;494;48.744;10.106;2023-06-19T12:15:12;35.90;1.00
1011;DHT22;494;48.744;10.106;2023-06-19T12:17:41;36.30;1.00
1011;DHT22;494;48.744;10.106;2023-06-19T12:20:12;36.80;1.00
1011;DHT22;494;48.744;10.106;2023-06-19T12:22:41;37.30;1.00
1011;DHT22;494;48.744;10.106;2023-06-19T12:25:10;37.70;1.00
1011;DHT22;494;48.744;10.106;2023-06-19T12:27:39;38.00;1.00
1011;DHT22;494;48.744;10.106;2023-06-19T12:30:09;38.30;1.00
1011;DHT22;494;48.744;10.106;2023-06-19T12:32:38;38.40;1.00
1011;DHT22;494;48.744;10.106;2023-06-19T12:35:08;37.90;1.00
1011;DHT22;494;48.744;10.106;2023-06-19T12:37:38;37.50;1.00
1011;DHT22;494;48.744;10.106;2023-06-19T12:40:08;36.90;1.00
1011;DHT22;494;48.744;10.106;2023-06-19T12:42:38;36.30;1.00
1011;DHT22;494;48.744;10.106;2023-06-19T12:45:07;35.70;1.30
1011;DHT22;494;48.744;10.106;2023-06-19T12:47:37;35.40;2.30
1011;DHT22;494;48.744;10.106;2023-06-19T12:50:07;35.20;3.00
1011;DHT22;494;48.744;10.106;2023-06-19T12:52:38;35.50;2.60
1011;DHT22;494;48.744;10.106;2023-06-19T12:55:08;35.80;2.10
1011;DHT22;494;48.744;10.106;2023-06-19T12:57:37;35.90;1.90
1011;DHT22;494;48.744;10.106;2023-06-19T13:00:11;35.80;2.20
1011;DHT22;494;48.744;10.106;2023-06-19T13:02:41;36.00;1.80
1011;DHT22;494;48.744;10.106;2023-06-19T13:05:10;36.20;1.90
1011;DHT22;494;48.744;10.106;2023-06-19T13:07:40;36.60;1.00
1011;DHT22;494;48.744;10.106;2023-06-19T13:10:09;37.10;1.00
1011;DHT22;494;48.744;10.106;2023-06-19T13:12:38;37.60;1.00
1011;DHT22;494;48.744;10.106;2023-06-19T13:15:08;37.70;1.00
1011;DHT22;494;48.744;10.106;2023-06-19T13:17:37;37.70;1.00
1011;DHT22;494;48.744;10.106;2023-06-19T13:20:07;37.70;1.00
1011;DHT22;494;48.744;10.106;2023-06-19T13:22:36;37.40;1.00
1011;DHT22;494;48.744;10.106;2023-06-19T13:25:07;37.10;1.00
1011;DHT22;494;48.744;10.106;2023-06-19T13:27:36;36.70;1.00
1011;DHT22;494;48.744;10.106;2023-06-19T13:30:07;35.90;1.00
1011;DHT22;494;48.744;10.106;2023-06-19T13:32:36;35.30;1.00
1011;DHT22;494;48.744;10.106;2023-06-19T13:35:07;35.00;1.10
1011;DHT22;494;48.744;10.106;2023-06-19T13:37:37;34.70;1.40
1011;DHT22;494;48.744;10.106;2023-06-19T13:40:09;34.60;1.30
1011;DHT22;494;48.744;10.106;2023-06-19T13:42:38;34.50;1.40
1011;DHT22;494;48.744;10.106;2023-06-19T13:45:07;34.40;2.30
1011;DHT22;494;48.744;10.106;2023-06-19T13:47:37;34.50;2.40
1011;DHT22;494;48.744;10.106;2023-06-19T13:50:06;34.80;1.40
1011;DHT22;494;48.744;10.106;2023-06-19T13:52:37;35.30;1.50
1011;DHT22;494;48.744;10.106;2023-06-19T13:55:09;35.60;1.00
1011;DHT22;494;48.744;10.106;2023-06-19T13:57:37;36.00;1.00
1011;DHT22;494;48.744;10.106;2023-06-19T14:00:09;36.50;1.00
1011;DHT22;494;48.744;10.106;2023-06-19T14:02:39;36.70;1.00
1011;DHT22;494;48.744;10.106;2023-06-19T14:05:09;37.00;1.00
1011;DHT22;494;48.744;10.106;2023-06-19T14:07:40;37.30;1.00
1011;DHT22;494;48.744;10.106;2023-06-19T14:10:10;37.30;1.00
1011;DHT22;494;48.744;10.106;2023-06-19T14:12:40;37.20;1.00
1011;DHT22;494;48.744;10.106;2023-06-19T14:15:09;37.00;1.00
1011;DHT22;494;48.744;10.106;2023-06-19T14:17:38;37.10;1.00
1011;DHT22;494;48.744;10.106;2023-06-19T14:20:10;37.10;1.00
1011;DHT22;494;48.744;10.106;2023-06-19T14:22:40;36.90;1.00
1011;DHT22;494;48.744;10.106;2023-06-19T14:25:11;36.90;1.00
1011;DHT22;494;48.744;10.106;2023-06-19T14:27:40;37.20;1.00
1011;DHT22;494;48.744;10.106;2023-06-19T14:30:09;37.60;1.00
1011;DHT22;494;48.744;10.106;2023-06-19T14:32:38;37.70;1.00
1011;DHT22;494;48.744;10.106;2023-06-19T14:35:07;37.80;1.00
1011;DHT22;494;48.744;10.106;2023-06-19T14:37:36;37.80;1.00
1011;DHT22;494;48.744;10.106;2023-06-19T14:40:07;37.60;1.00
1011;DHT22;494;48.744;10.106;2023-06-19T14:42:37;37.20;1.00
1011;DHT22;494;48.744;10.106;2023-06-19T14:45:07;36.80;1.00
1011;DHT22;494;48.744;10.106;2023-06-19T14:47:36;36.60;1.00
1011;DHT22;494;48.744;10.106;2023-06-19T14:50:06;36.60;1.00
1011;DHT22;494;48.744;10.106;2023-06-19T14:52:35;36.30;1.00
1011;DHT22;494;48.744;10.106;2023-06-19T14:55:05;35.70;1.00
1011;DHT22;494;48.744;10.106;2023-06-19T14:57:34;35.30;1.00
1011;DHT22;494;48.744;10.106;2023-06-19T15:00:06;34.90;1.00
1011;DHT22;494;48.744;10.106;2023-06-19T15:02:36;34.40;1.50
1011;DHT22;494;48.744;10.106;2023-06-19T15:05:08;34.30;2.60
1011;DHT22;494;48.744;10.106;2023-06-19T15:07:36;34.20;2.70
1011;DHT22;494;48.744;10.106;2023-06-19T15:10:05;34.20;2.80
1011;DHT22;494;48.744;10.106;2023-06-19T15:12:34;34.40;3.10
1011;DHT22;494;48.744;10.106;2023-06-19T15:15:06;34.80;1.30
1011;DHT22;494;48.744;10.106;2023-06-19T15:17:35;35.10;1.00
1011;DHT22;494;48.744;10.106;2023-06-19T15:20:05;35.30;1.00
1011;DHT22;494;48.744;10.106;2023-06-19T15:22:35;35.20;1.00
1011;DHT22;494;48.744;10.106;2023-06-19T15:25:06;34.80;1.30
1011;DHT22;494;48.744;10.106;2023-06-19T15:27:35;34.40;1.70
1011;DHT22;494;48.744;10.106;2023-06-19T15:30:07;34.20;2.10
1011;DHT22;494;48.744;10.106;2023-06-19T15:32:36;34.00;2.40
1011;DHT22;494;48.744;10.106;2023-06-19T15:35:05;33.90;2.30
1011;DHT22;494;48.744;10.106;2023-06-19T15:37:34;33.80;2.60
1011;DHT22;494;48.744;10.106;2023-06-19T15:40:05;33.70;2.50
1011;DHT22;494;48.744;10.106;2023-06-19T15:42:34;34.00;2.90
1011;DHT22;494;48.744;10.106;2023-06-19T15:45:06;34.30;2.60
1011;DHT22;494;48.744;10.106;2023-06-19T15:47:35;34.60;1.40
1011;DHT22;494;48.744;10.106;2023-06-19T15:50:04;35.00;1.80
1011;DHT22;494;48.744;10.106;2023-06-19T15:52:34;35.30;1.10
1011;DHT22;494;48.744;10.106;2023-06-19T15:55:03;35.50;1.00
1011;DHT22;494;48.744;10.106;2023-06-19T15:57:32;35.70;1.40
1011;DHT22;494;48.744;10.106;2023-06-19T16:00:00;35.90;1.00
1011;DHT22;494;48.744;10.106;2023-06-19T16:02:33;36.00;1.00
1011;DHT22;494;48.744;10.106;2023-06-19T16:05:03;36.20;1.30
1011;DHT22;494;48.744;10.106;2023-06-19T16:07:32;36.20;1.00
1011;DHT22;494;48.744;10.106;2023-06-19T16:10:00;36.10;1.00
1011;DHT22;494;48.744;10.106;2023-06-19T16:12:29;36.00;1.00
1011;DHT22;494;48.744;10.106;2023-06-19T16:14:58;35.90;1.00
1011;DHT22;494;48.744;10.106;2023-06-19T16:17:26;36.00;1.00
1011;DHT22;494;48.744;10.106;2023-06-19T16:19:58;35.90;1.00
1011;DHT22;494;48.744;10.106;2023-06-19T16:22:27;35.70;1.00
1011;DHT22;494;48.744;10.106;2023-06-19T16:24:55;35.30;1.20
1011;DHT22;494;48.744;10.106;2023-06-19T16:27:24;35.00;1.60